Aktualne dane pomiarowe

Uwaga, wersja testowa! Automatyczne pobieranie danych za pomocą narzędzi lub skryptów to umożliwiających jest zabronione.

Dane meteo z obszaru Polski uzyskane na podstawie depesz SYNOP pobieranych co godzinę z NWS. Najedź myszką na symbol przedstawiony w tabeli, aby uzyskać informacje co do jego znaczenia. Prosimy pamiętać, że to testowa wersja strony, która jeszcze nie jest ukończona. Stworzono również jest krótki FAQ dotyczący korzystania z tej podstrony Anomalie temperatury w chwili obecnej odniesione są do okresu referencyjnego 1951-2016. Okres ten będzie później zmieniony na 1981-2010. Kliknij ikonę aby pobrać plik CSV. Kliknij ikonę aby wygenerować mapę synoptyczną dla danego terminu.

Wybierz Datę:    

        

Jelenia Góra (12500)

Dane terminowe dla wybranej stacji. Kliknij datę, aby otrzymać dane z tego terminu dla wszystkich stacji.

TemperaturaZachmurzenieWiatrCiśnienieOpadyPogoda
 Data t td wb tx tn tg rh  Nt Nl Cl Cm Ch ws wd g1 g2 wx mslp ppp ch 24h 12h t ww ww w1 w2  
2019-07-12 23:00:00 13.2 12.6 12.7--- 9620.0wxwxwx1wx--11010.7 970.1 0.0---------
2019-07-12 22:00:00 13.8 13.3 13.4--- 9725.0wxwxwx2wx---1010.8 970.3 0.3---wx---
2019-07-12 21:00:00 13.9 13.6 13.7--- 9820.0wxwxwx1wx--11011.1 970.6 0.7---wx---
2019-07-12 20:00:00 13.7 13.1 13.2--- 9630.0wxwxwxwxwx1wx--11010.6 970.1 -0.1---------
2019-07-12 19:00:00 15.6 14.0 14.5--- 9050.0wxwxwxwxwx0---01010.3 970.0 -0.2---------
2019-07-12 18:00:00 18.1 13.8 15.2 19.0 14.1- 7650.0wxwxwxwxwx1wx--11009.8 969.9 -0.6- 5.012wx-w1--
2019-07-12 17:00:00 18.7 14.0 15.6--- 7450.0wxwxwxwxwx2wx--21010.0 970.2 -0.6---------
2019-07-12 16:00:00 18.4 13.5 15.2--- 7350.0wxwxwxwxwx1wx--11010.1 970.2 -0.7---------
2019-07-12 15:00:00 18.2 13.1 14.9--- 7250.0wxwxwxwx1wx--11010.4 970.5 -0.7---wx-w1--
2019-07-12 14:00:00 17.3 14.0 15.1--- 8140.0wxwxwxwx2wx--21010.9 970.8 -0.7---------
2019-07-12 13:00:00 17.0 14.8 15.5--- 8735.0wxwxwxwx2wx--21011.0 970.9 -0.7---wx-w1--
2019-07-12 12:00:00 15.5 14.5 14.8--- 9412.0wxwxwxwx2wx--21011.5 971.2 -0.6- 5.06wx-w1--
2019-07-12 11:00:00 15.5 14.2 14.6--- 9212.0wxwxwx2wx--21011.8 971.5 -0.3---wx-w1--
2019-07-12 10:00:00 16.1 13.2 14.1--- 8324.0wxwxwx0---01011.9 971.6 0.0---wx-w1--
2019-07-12 09:00:00 14.8 13.5 13.9--- 927.0wxwxwx0----1012.3 971.8 0.3---wx-w1--
2019-07-12 08:00:00 14.5 12.9 13.4--- 9010.0wxwxwxwx1wx--11012.3 971.8 0.2---wx-w1w2--
2019-07-12 07:00:00 15.5 11.1 12.7--- 7530.0wxwxwxwx1wx--11011.9 971.6 0.0---wx---
2019-07-12 06:00:00 14.1 9.9 11.4 19.2 8.8 7 7640.0wxwxwxwx0---01012.0 971.5 0.1- 0.012----- 11.8
2019-07-12 05:00:00 12.1 9.1 10.1--- 8245.0wx-wxwx1wx---1012.4 971.6 0.2---------
2019-07-12 04:00:00 10.7 9.3 9.7--- 9135.0wx-wx2wx--21012.6 971.6 -0.2---------
2019-07-12 03:00:00 10.0 7.6 8.4--- 8550.0wx-wxwx1wx--11012.5 971.4 -0.7---------
2019-07-12 02:00:00 9.4 7.7 8.2--- 8945.0wx-wxwx1wx--11012.6 971.4 -1.2---------
2019-07-12 01:00:00 9.3 7.2 7.9--- 8750.0wx-wxwx1wx--11013.1 971.8 -0.8---------
2019-07-12 00:00:00 8.9 7.5 7.9--- 9130.0wx-wxwx1wx--11013.4 972.1 -0.4- 0.06------
2019-07-11 23:00:00 9.8 7.9 8.5--- 8830.0wx-wxwx1wx--11013.8 972.6 0.3---------
2019-07-11 22:00:00 11.3 7.8 9.1--- 7950.0wx-wxwx1wx--11013.6 972.6 0.7---------
2019-07-11 21:00:00 11.1 8.1 9.2--- 8240.0wx-wxwx1wx--11013.5 972.5 0.8---------
2019-07-11 20:00:00 13.9 9.1 10.9--- 7345.0wx-wxwx1wx--11012.9 972.3 0.6---------
2019-07-11 19:00:00 16.8 8.5 11.9--- 5850.0wxwxwxwxwx0---01012.1 971.9 0.2---------
2019-07-11 18:00:00 19.2 7.3 12.5 23.6 14.5- 4650.0wxwxwxwx1wx--11011.5 971.7 -0.2- 0.012------
2019-07-11 17:00:00 22.0 5.8 13.1--- 3545.0wxwxwxwx1wx--11011.1 971.7 -0.4---------
2019-07-11 16:00:00 22.3 4.8 12.9--- 3245.0wxwxwxwx2wx--21011.1 971.7 -0.8---------
2019-07-11 15:00:00 22.9 5.3 13.3--- 3245.0wxwxwxwx3wx--31011.2 971.9 -1.0---------
2019-07-11 14:00:00 23.1 3.6 12.8--- 2840.0wxwxwxwx2wx--21011.4 972.1 -1.2---------
2019-07-11 13:00:00 22.8 6.5 13.8--- 3545.0wxwxwxwx3wx--31011.9 972.5 -1.2---------
2019-07-11 12:00:00 21.1 6.2 12.9--- 3845.0wxwxwxwx3wx--31012.5 972.9 -1.2- 0.06------
2019-07-11 11:00:00 20.6 6.9 13.0--- 4140.0wxwxwxwx3wx8831013.0 973.3 -0.8---------
2019-07-11 10:00:00 20.2 7.5 13.0--- 4450.0wxwxwxwx4wx--41013.5 973.7 -0.5---------
2019-07-11 09:00:00 18.8 8.2 12.7--- 5050.0wxwxwxwxwx3wx--31014.1 974.1 -0.2---------
2019-07-11 08:00:00 17.8 8.9 12.5--- 5640.0wxwxwxwx3wx--31014.2 974.1 -0.2---------
2019-07-11 07:00:00 16.3 9.5 12.2--- 6445.0wxwxwxwxwx3wx---1014.5 974.2 -0.1---------
2019-07-11 06:00:00 14.5 11.3 12.4 18.9 9.4 6 8130.0wxwxwxwx1wx--11014.9 974.3 0.1 1.1 1.012wx-w1- 6.9
2019-07-11 05:00:00 12.8 11.2 11.7--- 9030.0wxwxwxwx0---01015.1 974.3 -0.1---------
2019-07-11 04:00:00 10.5 10.0 10.1--- 9719.0wxwxwxwx1wx--11015.5 974.3 -0.3---------
2019-07-11 03:00:00 10.5 10.0 10.1--- 9717.0wxwxwxwx1wx--11015.4 974.2 -0.7---wx---
2019-07-11 02:00:00 9.8 9.3 9.4--- 9715.0wxwxwxwx1wx--11015.7 974.4 -0.9---wx---
2019-07-11 01:00:00 10.0 9.1 9.3--- 9435.0wxwxwx1wx--11015.9 974.6 -0.7---------
2019-07-11 00:00:00 12.3 10.5 11.1--- 8950.0wxwxwx0---01015.8 974.9 -0.4- 0.26wx---
1.7 ms

 

Print Friendly, PDF & Email